createdAt,value
2018-08-04T00:00:01.415Z,17.29
2018-08-04T00:01:01.388Z,17.51
2018-08-04T00:02:01.738Z,17.47
2018-08-04T00:03:01.410Z,17.33
2018-08-04T00:04:01.419Z,17.43
2018-08-04T00:05:01.385Z,17.49
2018-08-04T00:06:01.463Z,17.4
2018-08-04T00:07:01.552Z,17.55
2018-08-04T00:08:01.470Z,17.39
2018-08-04T00:09:01.465Z,17.49
2018-08-04T00:10:01.515Z,17.44
2018-08-04T00:11:01.477Z,17.51
2018-08-04T00:12:01.458Z,17.45
2018-08-04T00:13:01.426Z,17.4
2018-08-04T00:14:01.487Z,17.38
2018-08-04T00:15:01.415Z,17.18
2018-08-04T00:16:01.394Z,17.39
2018-08-04T00:17:01.486Z,17.33
2018-08-04T00:18:01.515Z,17.2
2018-08-04T00:19:01.970Z,17.35
2018-08-04T00:20:01.421Z,17.31
2018-08-04T00:21:01.503Z,17.35
2018-08-04T00:22:01.792Z,17.18
2018-08-04T00:23:01.414Z,17.69
2018-08-04T00:24:01.454Z,17.53
2018-08-04T00:25:01.465Z,17.66
2018-08-04T00:26:01.531Z,17.66
2018-08-04T00:27:01.418Z,17.77
2018-08-04T00:28:01.574Z,17.74
2018-08-04T00:29:01.444Z,17.65
2018-08-04T00:30:01.452Z,17.87
2018-08-04T00:31:01.572Z,17.74
2018-08-04T00:32:01.461Z,17.91
2018-08-04T00:33:01.475Z,17.98
2018-08-04T00:34:01.457Z,17.98
2018-08-04T00:35:01.756Z,17.96
2018-08-04T00:36:01.463Z,17.97
2018-08-04T00:37:01.439Z,17.9
2018-08-04T00:38:01.488Z,17.87
2018-08-04T00:39:01.907Z,17.89
2018-08-04T00:40:01.472Z,18.07
2018-08-04T00:41:01.552Z,17.93
2018-08-04T00:42:01.572Z,18.04
2018-08-04T00:43:01.444Z,18.01
2018-08-04T00:44:01.546Z,18.09
2018-08-04T00:45:01.653Z,18.09
2018-08-04T00:46:01.538Z,17.97
2018-08-04T00:47:01.487Z,18.03
2018-08-04T00:48:01.619Z,17.99
2018-08-04T00:49:01.444Z,18.08
2018-08-04T00:50:02.203Z,17.9
2018-08-04T00:51:01.527Z,18.07
2018-08-04T00:52:01.800Z,18
2018-08-04T00:53:01.576Z,17.94
2018-08-04T00:54:01.459Z,17.77
2018-08-04T00:55:01.452Z,17.74
2018-08-04T00:56:01.518Z,17.91
2018-08-04T00:57:01.504Z,17.89
2018-08-04T00:58:01.575Z,17.83
2018-08-04T00:59:01.718Z,17.85
2018-08-04T01:00:01.856Z,17.8
2018-08-04T01:01:01.766Z,17.62
2018-08-04T01:02:01.581Z,17.66
2018-08-04T01:03:01.505Z,17.67
2018-08-04T01:04:01.484Z,17.68
2018-08-04T01:05:01.484Z,17.76
2018-08-04T01:06:01.491Z,17.48
2018-08-04T01:07:01.472Z,17.45
2018-08-04T01:08:01.502Z,17.55
2018-08-04T01:09:01.515Z,17.74
2018-08-04T01:10:01.490Z,17.57
2018-08-04T01:11:01.486Z,17.45
2018-08-04T01:12:01.507Z,17.7
2018-08-04T01:13:01.511Z,17.46
2018-08-04T01:14:01.527Z,17.5
2018-08-04T01:15:01.486Z,17.63
2018-08-04T01:16:01.535Z,17.51
2018-08-04T01:17:01.489Z,17.52
2018-08-04T01:18:01.500Z,17.55
2018-08-04T01:19:01.486Z,17.73
2018-08-04T01:20:01.505Z,17.73
2018-08-04T01:21:01.552Z,17.66
2018-08-04T01:22:01.496Z,17.75
2018-08-04T01:23:01.520Z,17.66
2018-08-04T01:24:01.640Z,17.62
2018-08-04T01:25:01.533Z,17.53
2018-08-04T01:26:01.526Z,17.51
2018-08-04T01:27:01.727Z,17.61
2018-08-04T01:28:01.564Z,17.75
2018-08-04T01:29:01.535Z,17.46
2018-08-04T01:30:01.720Z,17.73
2018-08-04T01:31:01.575Z,17.49
2018-08-04T01:32:01.706Z,17.47
2018-08-04T01:33:01.773Z,17.55
2018-08-04T01:34:01.857Z,17.71
2018-08-04T01:35:01.553Z,17.6
2018-08-04T01:36:01.542Z,17.61
2018-08-04T01:37:02.015Z,17.7
2018-08-04T01:38:01.545Z,17.85
2018-08-04T01:39:01.743Z,17.82
2018-08-04T01:40:01.543Z,17.9
2018-08-04T01:41:01.644Z,17.85
2018-08-04T01:42:02.235Z,17.84
2018-08-04T01:43:01.555Z,17.73
2018-08-04T01:44:01.696Z,17.85
2018-08-04T01:45:01.617Z,17.89
2018-08-04T01:46:01.612Z,17.65
2018-08-04T01:47:01.519Z,17.81
2018-08-04T01:48:01.667Z,17.81
2018-08-04T01:49:01.575Z,17.53
2018-08-04T01:50:01.542Z,17.57
2018-08-04T01:51:01.701Z,17.68
2018-08-04T01:52:01.557Z,17.77
2018-08-04T01:53:01.540Z,17.78
2018-08-04T01:54:01.544Z,17.81
2018-08-04T01:55:01.690Z,18
2018-08-04T01:56:01.536Z,17.99
2018-08-04T01:57:01.656Z,17.94
2018-08-04T01:58:01.579Z,17.7
2018-08-04T01:59:01.811Z,17.68
2018-08-04T02:00:01.681Z,17.64
2018-08-04T02:01:01.579Z,17.49
2018-08-04T02:02:01.563Z,17.39
2018-08-04T02:03:01.565Z,17.46
2018-08-04T02:04:01.600Z,17.46
2018-08-04T02:05:01.937Z,17.41
2018-08-04T02:06:01.586Z,17.48
2018-08-04T02:07:01.550Z,17.48
2018-08-04T02:08:01.573Z,17.54
2018-08-04T02:09:01.698Z,17.54
2018-08-04T02:10:01.593Z,17.53
2018-08-04T02:11:01.589Z,17.47
2018-08-04T02:12:01.760Z,17.55
2018-08-04T02:13:01.566Z,17.59
2018-08-04T02:14:01.612Z,17.69
2018-08-04T02:15:01.580Z,17.7
2018-08-04T02:16:01.629Z,17.69
2018-08-04T02:17:01.857Z,17.68
2018-08-04T02:18:01.612Z,17.61
2018-08-04T02:19:01.591Z,17.44
2018-08-04T02:20:01.576Z,17.67
2018-08-04T02:21:01.619Z,17.6
2018-08-04T02:22:01.577Z,17.65
2018-08-04T02:23:01.566Z,17.58
2018-08-04T02:24:01.595Z,17.64
2018-08-04T02:25:01.600Z,17.53
2018-08-04T02:26:01.624Z,17.42
2018-08-04T02:27:01.636Z,17.4
2018-08-04T02:28:01.579Z,17.52
2018-08-04T02:29:01.594Z,17.51
2018-08-04T02:30:01.614Z,17.42
2018-08-04T02:31:01.580Z,17.67
2018-08-04T02:32:01.627Z,17.5
2018-08-04T02:33:01.664Z,17.52
2018-08-04T02:34:01.599Z,17.36
2018-08-04T02:35:01.632Z,17.58
2018-08-04T02:36:01.617Z,17.51
2018-08-04T02:37:01.651Z,17.54
2018-08-04T02:38:01.590Z,17.73
2018-08-04T02:39:01.643Z,17.64
2018-08-04T02:40:01.609Z,17.68
2018-08-04T02:41:01.620Z,17.62
2018-08-04T02:42:01.854Z,17.57
2018-08-04T02:43:01.618Z,17.69
2018-08-04T02:44:01.638Z,17.52
2018-08-04T02:45:01.856Z,17.51
2018-08-04T02:46:01.848Z,17.51
2018-08-04T02:47:01.632Z,17.51
2018-08-04T02:48:01.698Z,17.65
2018-08-04T02:49:01.744Z,17.39
2018-08-04T02:50:01.705Z,17.52
2018-08-04T02:51:01.626Z,17.62
2018-08-04T02:52:01.878Z,17.72
2018-08-04T02:53:01.642Z,17.46
2018-08-04T02:54:01.660Z,17.64
2018-08-04T02:55:01.744Z,17.81
2018-08-04T02:56:01.744Z,17.86
2018-08-04T02:57:01.698Z,17.83
2018-08-04T02:58:01.684Z,17.72
2018-08-04T02:59:01.662Z,17.58
2018-08-04T03:00:01.745Z,17.58
2018-08-04T03:01:01.832Z,17.53
2018-08-04T03:02:01.681Z,17.57
2018-08-04T03:03:01.627Z,17.45
2018-08-04T03:04:01.863Z,17.48
2018-08-04T03:05:01.801Z,17.39
2018-08-04T03:06:01.671Z,17.45
2018-08-04T03:07:01.632Z,17.42
2018-08-04T03:08:01.660Z,17.35
2018-08-04T03:09:02.019Z,17.48
2018-08-04T03:10:01.778Z,17.5
2018-08-04T03:11:01.682Z,17.42
2018-08-04T03:12:01.794Z,17.27
2018-08-04T03:13:01.694Z,17.39
2018-08-04T03:14:01.869Z,17.45
2018-08-04T03:15:01.780Z,17.52
2018-08-04T03:16:01.667Z,17.52
2018-08-04T03:17:01.673Z,17.55
2018-08-04T03:18:01.669Z,17.54
2018-08-04T03:19:01.814Z,17.45
2018-08-04T03:20:01.747Z,17.45
2018-08-04T03:21:01.669Z,17.37
2018-08-04T03:22:01.671Z,17.54
2018-08-04T03:23:01.663Z,17.41
2018-08-04T03:24:01.690Z,17.5
2018-08-04T03:25:01.816Z,17.52
2018-08-04T03:26:01.720Z,17.47
2018-08-04T03:27:01.684Z,17.36
2018-08-04T03:28:01.751Z,17.53
2018-08-04T03:29:01.703Z,17.48
2018-08-04T03:30:01.916Z,17.49
2018-08-04T03:31:01.698Z,17.49
2018-08-04T03:32:01.788Z,17.56
2018-08-04T03:33:01.727Z,17.53
2018-08-04T03:34:01.766Z,17.52
2018-08-04T03:35:01.720Z,17.51
2018-08-04T03:36:01.781Z,17.55
2018-08-04T03:37:01.689Z,17.54
2018-08-04T03:38:01.683Z,17.55
2018-08-04T03:39:01.735Z,17.51
2018-08-04T03:40:01.696Z,17.56
2018-08-04T03:41:01.685Z,17.51
2018-08-04T03:42:01.689Z,17.44
2018-08-04T03:43:01.724Z,17.45
2018-08-04T03:44:01.727Z,17.41
2018-08-04T03:45:01.717Z,17.29
2018-08-04T03:46:01.730Z,17.31
2018-08-04T03:47:01.704Z,17.34
2018-08-04T03:48:01.694Z,17.4
2018-08-04T03:49:01.728Z,17.33
2018-08-04T03:50:01.743Z,17.34
2018-08-04T03:51:01.745Z,17.36
2018-08-04T03:52:01.761Z,17.31
2018-08-04T03:53:01.688Z,17.39
2018-08-04T03:54:01.708Z,17.32
2018-08-04T03:55:01.726Z,17.34
2018-08-04T03:56:01.716Z,17.38
2018-08-04T03:57:02.153Z,17.27
2018-08-04T03:58:01.889Z,17.47
2018-08-04T03:59:01.692Z,17.52
2018-08-04T04:00:01.918Z,17.52
2018-08-04T04:01:01.700Z,17.51
2018-08-04T04:02:01.755Z,17.57
2018-08-04T04:03:01.765Z,17.46
2018-08-04T04:04:01.804Z,17.52
2018-08-04T04:05:01.716Z,17.34
2018-08-04T04:06:01.713Z,17.42
2018-08-04T04:07:01.727Z,17.35
2018-08-04T04:08:01.769Z,17.41
2018-08-04T04:09:01.787Z,17.26
2018-08-04T04:10:01.716Z,17.36
2018-08-04T04:11:01.903Z,17.6
2018-08-04T04:12:01.827Z,17.54
2018-08-04T04:13:01.778Z,17.64
2018-08-04T04:14:01.767Z,17.53
2018-08-04T04:15:01.771Z,17.37
2018-08-04T04:16:01.775Z,17.53
2018-08-04T04:17:01.777Z,17.8
2018-08-04T04:18:01.833Z,17.89
2018-08-04T04:19:01.870Z,17.87
2018-08-04T04:20:01.806Z,17.82
2018-08-04T04:21:02.101Z,17.75
2018-08-04T04:22:01.785Z,17.72
2018-08-04T04:23:01.806Z,17.56
2018-08-04T04:24:01.895Z,17.62
2018-08-04T04:25:01.768Z,17.82
2018-08-04T04:26:01.796Z,17.72
2018-08-04T04:27:01.776Z,17.73
2018-08-04T04:28:01.725Z,17.66
2018-08-04T04:29:01.752Z,17.51
2018-08-04T04:30:01.757Z,17.63
2018-08-04T04:31:01.771Z,17.43
2018-08-04T04:32:01.749Z,17.48
2018-08-04T04:33:01.983Z,17.63
2018-08-04T04:34:01.898Z,17.62
2018-08-04T04:35:01.757Z,17.53
2018-08-04T04:36:01.865Z,17.54
2018-08-04T04:37:01.848Z,17.48
2018-08-04T04:38:01.844Z,17.75
2018-08-04T04:39:02.027Z,17.89
2018-08-04T04:40:01.763Z,17.73
2018-08-04T04:41:02.018Z,17.67
2018-08-04T04:42:01.740Z,17.7
2018-08-04T04:43:01.955Z,17.73
2018-08-04T04:44:01.971Z,17.61
2018-08-04T04:45:02.160Z,17.45
2018-08-04T04:46:02.027Z,17.41
2018-08-04T04:47:01.808Z,17.43
2018-08-04T04:48:01.835Z,17.43
2018-08-04T04:49:01.991Z,17.63
2018-08-04T04:50:02.044Z,17.74
2018-08-04T04:51:02.024Z,17.71
2018-08-04T04:52:01.809Z,17.6
2018-08-04T04:53:01.799Z,17.61
2018-08-04T04:54:01.788Z,17.6
2018-08-04T04:55:01.756Z,17.53
2018-08-04T04:56:01.793Z,17.48
2018-08-04T04:57:01.803Z,17.44
2018-08-04T04:58:01.819Z,17.52
2018-08-04T04:59:01.865Z,17.42
2018-08-04T05:00:01.804Z,17.3
2018-08-04T05:01:01.844Z,17.28
2018-08-04T05:02:02.190Z,17.23
2018-08-04T05:03:01.811Z,17.23
2018-08-04T05:04:01.827Z,17.31
2018-08-04T05:05:01.866Z,17.26
2018-08-04T05:06:01.794Z,17.32
2018-08-04T05:07:01.996Z,17.34
2018-08-04T05:08:01.830Z,17.24
2018-08-04T05:09:01.824Z,17.23
2018-08-04T05:10:01.817Z,17.2
2018-08-04T05:11:01.793Z,17.31
2018-08-04T05:12:01.816Z,17.23
2018-08-04T05:13:02.048Z,17.17
2018-08-04T05:14:01.831Z,17.2
2018-08-04T05:15:01.821Z,17.25
2018-08-04T05:16:01.783Z,17.17
2018-08-04T05:17:01.846Z,17.23
2018-08-04T05:18:01.804Z,17.26
2018-08-04T05:19:01.964Z,17.34
2018-08-04T05:20:01.841Z,17.25
2018-08-04T05:21:01.830Z,17.17
2018-08-04T05:22:01.811Z,17.19
2018-08-04T05:23:01.820Z,17.27
2018-08-04T05:24:02.053Z,17.25
2018-08-04T05:25:01.807Z,17.22
2018-08-04T05:26:01.820Z,17.45
2018-08-04T05:27:01.873Z,17.44
2018-08-04T05:28:01.897Z,17.31
2018-08-04T05:29:02.044Z,17.36
2018-08-04T05:30:01.916Z,17.27
2018-08-04T05:31:02.173Z,17.36
2018-08-04T05:32:02.321Z,17.44
2018-08-04T05:33:01.845Z,17.46
2018-08-04T05:34:01.847Z,17.57
2018-08-04T05:35:01.852Z,17.44
2018-08-04T05:36:01.831Z,17.43
2018-08-04T05:37:02.008Z,17.44
2018-08-04T05:38:01.863Z,17.4
2018-08-04T05:39:01.894Z,17.32
2018-08-04T05:40:01.861Z,17.39
2018-08-04T05:41:01.843Z,17.54
2018-08-04T05:42:02.019Z,17.39
2018-08-04T05:43:02.150Z,17.41
2018-08-04T05:44:01.977Z,17.41
2018-08-04T05:45:02.037Z,17.41
2018-08-04T05:46:01.865Z,17.45
2018-08-04T05:47:01.913Z,17.41
2018-08-04T05:48:01.933Z,17.62
2018-08-04T05:49:01.901Z,17.55
2018-08-04T05:50:02.471Z,17.65
2018-08-04T05:51:01.836Z,17.59
2018-08-04T05:52:02.048Z,17.66
2018-08-04T05:53:01.915Z,17.66
2018-08-04T05:54:01.884Z,17.77
2018-08-04T05:55:01.896Z,17.69
2018-08-04T05:56:02.159Z,17.74
2018-08-04T05:57:01.866Z,17.76
2018-08-04T05:58:02.261Z,17.77
2018-08-04T05:59:02.057Z,17.74
2018-08-04T06:00:01.924Z,17.72
2018-08-04T06:01:01.911Z,17.69
2018-08-04T06:02:02.487Z,17.79
2018-08-04T06:03:01.847Z,17.69
2018-08-04T06:04:01.878Z,17.87
2018-08-04T06:05:01.987Z,17.79
2018-08-04T06:06:01.884Z,17.74
2018-08-04T06:07:01.869Z,17.74
2018-08-04T06:08:01.912Z,17.72
2018-08-04T06:09:01.862Z,17.71
2018-08-04T06:10:01.877Z,17.75
2018-08-04T06:11:01.928Z,17.77
2018-08-04T06:12:01.904Z,17.82
2018-08-04T06:13:01.867Z,17.92
2018-08-04T06:14:01.936Z,17.85
2018-08-04T06:15:01.939Z,17.83
2018-08-04T06:16:01.892Z,17.9
2018-08-04T06:17:01.869Z,18.01
2018-08-04T06:18:01.890Z,17.91
2018-08-04T06:19:01.886Z,17.86
2018-08-04T06:20:01.900Z,17.89
2018-08-04T06:21:01.941Z,17.86
2018-08-04T06:22:02.151Z,17.86
2018-08-04T06:23:01.910Z,17.94
2018-08-04T06:24:02.048Z,18.02
2018-08-04T06:25:02.043Z,18.22
2018-08-04T06:26:01.906Z,18.09
2018-08-04T06:27:01.863Z,18.17
2018-08-04T06:28:01.920Z,18.1
2018-08-04T06:29:01.878Z,18.07
2018-08-04T06:30:02.297Z,18.03
2018-08-04T06:31:02.217Z,18
2018-08-04T06:32:01.896Z,18.2
2018-08-04T06:33:01.900Z,18.2
2018-08-04T06:34:01.897Z,18.15
2018-08-04T06:35:02.055Z,18.25
2018-08-04T06:36:02.203Z,18.19
2018-08-04T06:37:01.992Z,18.22
2018-08-04T06:38:02.051Z,18.31
2018-08-04T06:39:02.125Z,18.37
2018-08-04T06:40:02.063Z,18.36
2018-08-04T06:41:02.033Z,18.36
2018-08-04T06:42:02.044Z,18.4
2018-08-04T06:43:02.040Z,18.49
2018-08-04T06:44:01.920Z,18.52
2018-08-04T06:45:02.039Z,18.44
2018-08-04T06:46:02.036Z,18.27
2018-08-04T06:47:01.935Z,18.25
2018-08-04T06:48:02.013Z,18.3
2018-08-04T06:49:01.927Z,18.36
2018-08-04T06:50:01.988Z,18.28
2018-08-04T06:51:02.046Z,18.41
2018-08-04T06:52:01.978Z,18.34
2018-08-04T06:53:02.264Z,18.38
2018-08-04T06:54:02.083Z,18.4
2018-08-04T06:55:02.056Z,18.49
2018-08-04T06:56:02.071Z,18.46
2018-08-04T06:57:02.067Z,18.57
2018-08-04T06:58:02.139Z,18.58
2018-08-04T06:59:02.001Z,18.52
2018-08-04T07:00:02.153Z,18.5
2018-08-04T07:01:02.278Z,18.45
2018-08-04T07:02:02.035Z,18.52
2018-08-04T07:03:01.976Z,18.44
2018-08-04T07:04:02.204Z,18.45
2018-08-04T07:05:01.992Z,18.46
2018-08-04T07:06:01.959Z,18.35
2018-08-04T07:07:02.020Z,18.4
2018-08-04T07:08:01.945Z,18.45
2018-08-04T07:09:02.120Z,18.52
2018-08-04T07:10:01.988Z,18.41
2018-08-04T07:11:02.013Z,18.45
2018-08-04T07:12:03.515Z,18.29
2018-08-04T07:13:02.766Z,18.5
2018-08-04T07:14:01.972Z,18.38
2018-08-04T07:15:02.128Z,18.31
2018-08-04T07:16:01.992Z,18.5
2018-08-04T07:17:01.977Z,18.52
2018-08-04T07:18:02.058Z,18.41
2018-08-04T07:19:02.008Z,18.47
2018-08-04T07:20:02.072Z,18.43
2018-08-04T07:21:02.053Z,18.35
2018-08-04T07:22:02.003Z,18.36
2018-08-04T07:23:02.553Z,18.45
2018-08-04T07:24:02.056Z,18.53
2018-08-04T07:25:02.011Z,18.61
2018-08-04T07:26:01.999Z,18.53
2018-08-04T07:27:02.003Z,18.5
2018-08-04T07:28:01.967Z,18.41
2018-08-04T07:29:02.627Z,18.49
2018-08-04T07:30:02.027Z,18.56
2018-08-04T07:31:01.987Z,18.71
2018-08-04T07:32:02.036Z,18.59
2018-08-04T07:33:01.978Z,18.48
2018-08-04T07:34:01.998Z,18.26
2018-08-04T07:35:02.014Z,18.36
2018-08-04T07:36:02.032Z,18.47
2018-08-04T07:37:02.009Z,18.26
2018-08-04T07:38:02.032Z,18.36
2018-08-04T07:39:02.022Z,18.35
2018-08-04T07:40:02.020Z,18.35
2018-08-04T07:41:02.446Z,18.21
2018-08-04T07:42:02.060Z,18.16
2018-08-04T07:43:02.011Z,18.04
2018-08-04T07:44:02.041Z,18.08
2018-08-04T07:45:01.996Z,18.16
2018-08-04T07:46:02.024Z,18.26
2018-08-04T07:47:02.174Z,18.38
2018-08-04T07:48:02.001Z,18.37
2018-08-04T07:49:02.386Z,18.48
2018-08-04T07:50:02.192Z,18.54
2018-08-04T07:51:02.055Z,18.63
2018-08-04T07:52:02.089Z,18.48
2018-08-04T07:53:02.033Z,18.47
2018-08-04T07:54:02.381Z,18.5
2018-08-04T07:55:02.029Z,18.51
2018-08-04T07:56:02.010Z,18.82
2018-08-04T07:57:02.017Z,18.68
2018-08-04T07:58:02.054Z,18.84
2018-08-04T07:59:02.036Z,18.58
2018-08-04T08:00:02.054Z,18.35
2018-08-04T08:01:02.050Z,18.34
2018-08-04T08:02:02.076Z,18.28
2018-08-04T08:03:02.081Z,18.34
2018-08-04T08:04:02.045Z,18.65
2018-08-04T08:05:02.483Z,18.38
2018-08-04T08:06:02.014Z,18.61
2018-08-04T08:07:02.244Z,18.38
2018-08-04T08:08:02.090Z,18.58
2018-08-04T08:09:02.106Z,18.7
2018-08-04T08:10:02.035Z,18.87
2018-08-04T08:11:02.601Z,18.69
2018-08-04T08:12:02.051Z,18.85
2018-08-04T08:13:02.101Z,18.56
2018-08-04T08:14:02.057Z,18.64
2018-08-04T08:15:02.141Z,18.78
2018-08-04T08:16:02.224Z,18.78
2018-08-04T08:17:02.056Z,18.94
2018-08-04T08:18:02.064Z,18.89
2018-08-04T08:19:02.026Z,18.91
2018-08-04T08:20:02.240Z,18.92
2018-08-04T08:21:02.453Z,19.07
2018-08-04T08:22:02.058Z,19.05
2018-08-04T08:23:02.521Z,18.94
2018-08-04T08:24:02.199Z,18.78
2018-08-04T08:25:02.052Z,18.81
2018-08-04T08:26:02.061Z,18.59
2018-08-04T08:27:03.673Z,18.98
2018-08-04T08:28:02.125Z,18.74
2018-08-04T08:29:02.259Z,18.77
2018-08-04T08:30:02.065Z,18.78
2018-08-04T08:31:02.064Z,18.7
2018-08-04T08:32:02.095Z,18.75
2018-08-04T08:33:02.067Z,18.69
2018-08-04T08:34:02.073Z,18.92
2018-08-04T08:35:02.070Z,18.77
2018-08-04T08:36:02.058Z,18.93
2018-08-04T08:37:02.111Z,18.87
2018-08-04T08:38:02.340Z,19.06
2018-08-04T08:39:02.068Z,18.85
2018-08-04T08:40:02.086Z,19.01
2018-08-04T08:41:02.100Z,18.83
2018-08-04T08:42:02.123Z,18.71
2018-08-04T08:43:02.059Z,18.81
2018-08-04T08:44:02.093Z,18.7
2018-08-04T08:45:02.083Z,18.88
2018-08-04T08:46:02.118Z,18.92
2018-08-04T08:47:02.387Z,18.91
2018-08-04T08:48:02.096Z,19
2018-08-04T08:49:02.155Z,18.99
2018-08-04T08:50:02.544Z,18.81
2018-08-04T08:51:02.106Z,18.98
2018-08-04T08:52:02.111Z,18.98
2018-08-04T08:53:02.554Z,19
2018-08-04T08:54:03.558Z,19.01
2018-08-04T08:55:02.131Z,19.01
2018-08-04T08:56:02.117Z,19.12
2018-08-04T08:57:02.119Z,18.98
2018-08-04T08:58:02.115Z,19
2018-08-04T08:59:02.099Z,18.81
2018-08-04T09:00:02.129Z,19.04
2018-08-04T09:01:02.145Z,19.18
2018-08-04T09:02:02.096Z,18.9
2018-08-04T09:03:02.163Z,19.06
2018-08-04T09:04:02.141Z,19
2018-08-04T09:05:02.343Z,19
2018-08-04T09:06:02.113Z,18.98
2018-08-04T09:07:02.093Z,18.77
2018-08-04T09:08:02.099Z,18.55
2018-08-04T09:09:02.100Z,18.7
2018-08-04T09:10:02.159Z,18.8
2018-08-04T09:11:02.148Z,18.63
2018-08-04T09:12:02.252Z,18.9
2018-08-04T09:13:02.251Z,18.88
2018-08-04T09:14:02.125Z,18.92
2018-08-04T09:15:02.146Z,18.89
2018-08-04T09:16:02.153Z,18.78
2018-08-04T09:17:02.230Z,18.94
2018-08-04T09:18:02.169Z,19.04
2018-08-04T09:19:02.199Z,18.47
2018-08-04T09:20:02.136Z,18.56
2018-08-04T09:21:02.135Z,18.56
2018-08-04T09:22:02.262Z,18.14
2018-08-04T09:23:02.462Z,17.8
2018-08-04T09:24:02.299Z,17.99
2018-08-04T09:25:02.125Z,17.83
2018-08-04T09:26:02.218Z,18.11
2018-08-04T09:27:02.255Z,17.89
2018-08-04T09:28:02.331Z,18.01
2018-08-04T09:29:02.157Z,17.87
2018-08-04T09:30:02.166Z,17.85
2018-08-04T09:31:02.243Z,18.16
2018-08-04T09:32:02.222Z,17.98
2018-08-04T09:33:02.138Z,17.84
2018-08-04T09:34:02.201Z,17.86
2018-08-04T09:35:02.138Z,17.8
2018-08-04T09:36:02.132Z,17.73
2018-08-04T09:37:02.220Z,17.85
2018-08-04T09:38:02.455Z,18.02
2018-08-04T09:39:02.369Z,17.84
2018-08-04T09:40:02.154Z,17.9
2018-08-04T09:41:02.359Z,17.89
2018-08-04T09:42:02.370Z,17.95
2018-08-04T09:43:02.167Z,18.1
2018-08-04T09:44:02.140Z,18.19
2018-08-04T09:45:02.202Z,18.1
2018-08-04T09:46:02.275Z,17.84
2018-08-04T09:47:02.776Z,17.79
2018-08-04T09:48:02.392Z,17.83
2018-08-04T09:49:02.157Z,17.97
2018-08-04T09:50:02.397Z,17.83
2018-08-04T09:51:02.155Z,17.91
2018-08-04T09:52:03.151Z,17.88
2018-08-04T09:53:02.186Z,18.05
2018-08-04T09:54:02.159Z,18.14
2018-08-04T09:55:02.261Z,18.07
2018-08-04T09:56:02.182Z,18.11
2018-08-04T09:57:02.183Z,18.18
2018-08-04T09:58:02.190Z,18.16
2018-08-04T09:59:02.165Z,18.12
2018-08-04T10:00:02.167Z,18.26
2018-08-04T10:01:02.227Z,17.95
2018-08-04T10:02:02.172Z,18.01
2018-08-04T10:03:02.270Z,17.98
2018-08-04T10:04:02.287Z,18.25
2018-08-04T10:05:04.641Z,17.98
2018-08-04T10:06:02.276Z,18.18
2018-08-04T10:07:02.296Z,18.11
2018-08-04T10:08:02.191Z,17.97
2018-08-04T10:09:02.205Z,17.95
2018-08-04T10:10:02.234Z,18.14
2018-08-04T10:11:02.195Z,17.84
2018-08-04T10:12:02.189Z,17.89
2018-08-04T10:13:02.236Z,18.08
2018-08-04T10:14:02.223Z,17.92
2018-08-04T10:15:02.299Z,18.02
2018-08-04T10:16:02.211Z,17.9
2018-08-04T10:17:02.220Z,18.17
2018-08-04T10:18:02.194Z,17.97
2018-08-04T10:19:02.242Z,17.91
2018-08-04T10:20:02.253Z,17.78
2018-08-04T10:21:02.238Z,17.68
2018-08-04T10:22:02.255Z,17.82
2018-08-04T10:23:02.227Z,17.67
2018-08-04T10:24:02.299Z,17.64
2018-08-04T10:25:02.274Z,17.76
2018-08-04T10:26:02.675Z,18.11
2018-08-04T10:27:02.371Z,17.89
2018-08-04T10:28:02.355Z,17.67
2018-08-04T10:29:02.257Z,18.01
2018-08-04T10:30:02.252Z,18.12
2018-08-04T10:31:02.827Z,17.96
2018-08-04T10:32:03.345Z,18.03
2018-08-04T10:33:02.267Z,18.21
2018-08-04T10:34:02.293Z,17.96
2018-08-04T10:35:02.512Z,18.21
2018-08-04T10:36:02.390Z,18
2018-08-04T10:37:02.300Z,18.02
2018-08-04T10:38:03.291Z,17.78
2018-08-04T10:39:02.238Z,17.81
2018-08-04T10:40:02.432Z,17.75
2018-08-04T10:41:02.595Z,17.97
2018-08-04T10:42:03.281Z,18
2018-08-04T10:43:02.367Z,18.02
2018-08-04T10:44:07.133Z,17.93
2018-08-04T10:45:02.441Z,17.71
2018-08-04T10:46:02.306Z,17.69
2018-08-04T10:47:02.268Z,17.52
2018-08-04T10:48:02.338Z,17.7
2018-08-04T10:49:02.313Z,17.56
2018-08-04T10:50:02.448Z,17.6
2018-08-04T10:51:02.473Z,17.71
2018-08-04T10:52:02.334Z,17.64
2018-08-04T10:53:02.304Z,17.67
2018-08-04T10:54:02.315Z,17.56
2018-08-04T10:55:02.328Z,17.49
2018-08-04T10:56:02.278Z,17.48
2018-08-04T10:57:02.585Z,17.44
2018-08-04T10:58:02.293Z,17.55
2018-08-04T10:59:02.271Z,17.08
2018-08-04T11:00:02.287Z,16.99
2018-08-04T11:01:02.426Z,17.09
2018-08-04T11:02:02.275Z,17.08
2018-08-04T11:03:02.250Z,17.36
2018-08-04T11:04:02.430Z,17.34
2018-08-04T11:05:02.276Z,17.46
2018-08-04T11:06:02.354Z,17.4
2018-08-04T11:07:02.437Z,17.06
2018-08-04T11:08:02.379Z,16.73
2018-08-04T11:09:02.448Z,16.44
2018-08-04T11:10:02.558Z,16.72
2018-08-04T11:11:02.300Z,16.93
2018-08-04T11:12:02.351Z,16.66
2018-08-04T11:13:02.494Z,16.63
2018-08-04T11:14:02.837Z,16.73
2018-08-04T11:15:02.698Z,16.51
2018-08-04T11:16:02.392Z,16.77
2018-08-04T11:17:02.352Z,16.65
2018-08-04T11:18:02.734Z,16.29
2018-08-04T11:19:02.508Z,16.49
2018-08-04T11:20:03.455Z,16.7
2018-08-04T11:21:02.327Z,15.8
2018-08-04T11:22:03.641Z,16.04
2018-08-04T11:23:04.490Z,16.28
2018-08-04T11:24:02.668Z,16.4
2018-08-04T11:25:02.444Z,15.97
2018-08-04T11:26:02.359Z,16.16
2018-08-04T11:27:02.378Z,16.36
2018-08-04T11:28:02.460Z,16.31
2018-08-04T11:29:02.484Z,16.17
2018-08-04T11:30:02.476Z,16.41
2018-08-04T11:31:02.512Z,16.41
2018-08-04T11:32:02.490Z,16.16
2018-08-04T11:33:02.495Z,16.13
2018-08-04T11:34:02.410Z,16.52
2018-08-04T11:35:02.417Z,15.83
2018-08-04T11:36:02.424Z,15.8
2018-08-04T11:37:03.469Z,15.81
2018-08-04T11:38:02.539Z,15.72
2018-08-04T11:39:02.818Z,15.45
2018-08-04T11:40:02.566Z,15.58
2018-08-04T11:41:02.447Z,15.53
2018-08-04T11:42:02.465Z,15.58
2018-08-04T11:43:02.461Z,15.59
2018-08-04T11:44:02.467Z,15.98
2018-08-04T11:45:02.595Z,15.99
2018-08-04T11:46:02.481Z,15.94
2018-08-04T11:47:02.507Z,15.88
2018-08-04T11:48:02.712Z,15.69
2018-08-04T11:49:02.504Z,15.43
2018-08-04T11:50:02.526Z,15.36
2018-08-04T11:51:02.367Z,15.19
2018-08-04T11:52:02.539Z,15.24
2018-08-04T11:53:02.447Z,15.58
2018-08-04T11:54:02.451Z,15.36
2018-08-04T11:55:02.551Z,15.23
2018-08-04T11:56:03.493Z,15.12
2018-08-04T11:57:02.380Z,14.82
2018-08-04T11:58:02.461Z,14.92
2018-08-04T11:59:02.400Z,14.91
2018-08-04T12:00:02.397Z,15.19
2018-08-04T12:01:02.507Z,14.97
2018-08-04T12:02:03.082Z,15.2
2018-08-04T12:03:02.375Z,15.15
2018-08-04T12:04:02.518Z,15.37
2018-08-04T12:05:02.432Z,15.43
2018-08-04T12:06:02.386Z,15.5
2018-08-04T12:07:02.533Z,15.46
2018-08-04T12:08:02.369Z,15.53
2018-08-04T12:09:02.451Z,15.6
2018-08-04T12:10:02.470Z,15.51
2018-08-04T12:11:02.721Z,15.68
2018-08-04T12:12:02.427Z,15.9
2018-08-04T12:13:02.583Z,16.04
2018-08-04T12:14:02.417Z,16.31
2018-08-04T12:15:02.551Z,15.68
2018-08-04T12:16:02.497Z,15.75
2018-08-04T12:17:02.437Z,15.49
2018-08-04T12:18:02.730Z,15.58
2018-08-04T12:19:02.508Z,15.93
2018-08-04T12:20:02.971Z,15.79
2018-08-04T12:21:03.046Z,15.28
2018-08-04T12:22:02.460Z,15.29
2018-08-04T12:23:02.393Z,15.3
2018-08-04T12:24:02.414Z,15.22
2018-08-04T12:25:02.583Z,15.55
2018-08-04T12:26:02.452Z,15.64
2018-08-04T12:27:02.502Z,15.39
2018-08-04T12:28:03.601Z,15.91
2018-08-04T12:29:02.406Z,15.81
2018-08-04T12:30:02.603Z,16.03
2018-08-04T12:31:02.495Z,16.02
2018-08-04T12:32:02.507Z,16.27
2018-08-04T12:33:02.554Z,16.25
2018-08-04T12:34:02.516Z,16.26
2018-08-04T12:35:02.384Z,15.7
2018-08-04T12:36:02.393Z,15.48
2018-08-04T12:37:02.544Z,15.14
2018-08-04T12:38:02.405Z,15.28
2018-08-04T12:39:02.390Z,15.19
2018-08-04T12:40:02.559Z,15.75
2018-08-04T12:41:02.554Z,15.75
2018-08-04T12:42:02.431Z,15.43
2018-08-04T12:43:02.475Z,15.23
2018-08-04T12:44:02.433Z,15.12
2018-08-04T12:45:02.415Z,15.05
2018-08-04T12:46:02.599Z,15.05
2018-08-04T12:47:02.432Z,14.63
2018-08-04T12:48:02.437Z,14.93
2018-08-04T12:49:02.532Z,14.89
2018-08-04T12:50:02.429Z,15.1
2018-08-04T12:51:02.430Z,15.37
2018-08-04T12:52:02.546Z,15.22
2018-08-04T12:53:02.417Z,15.34
2018-08-04T12:54:02.445Z,15.67
2018-08-04T12:55:02.570Z,15.08